Time;durP1;ratioP1;P1;durP2;ratioP2;P2;SDS_P1;SDS_P2;PMS_P1;PMS_P2;Temp;Humidity;BMP_temperature;BMP_pressure;BME280_temperature;BME280_humidity;BME280_pressure;Samples;Min_cycle;Max_cycle;Signal;HPM_P1;HPM_P2
2021/09/08 00:00:30;;;;;;;1999.90;999.90;;;;;;;;;;5096129;28;20477;-86
2021/09/08 00:02:59;;;;;;;1999.90;999.90;;;;;;;;;;5096686;28;20442;-85
2021/09/08 00:05:28;;;;;;;1999.90;999.90;;;;;;;;;;5096082;28;20588;-85
2021/09/08 00:07:55;;;;;;;1999.90;999.90;;;;;;;;;;5095239;28;20455;-85
2021/09/08 00:10:22;;;;;;;1999.90;999.90;;;;;;;;;;5095362;28;20991;-85
2021/09/08 00:12:49;;;;;;;1999.90;999.90;;;;;;;;;;5095405;28;20490;-86
2021/09/08 00:15:16;;;;;;;1999.90;999.90;;;;;;;;;;5095123;28;20444;-85
2021/09/08 00:17:44;;;;;;;1999.90;999.90;;;;;;;;;;5094380;28;20458;-85
2021/09/08 00:20:12;;;;;;;1999.90;999.90;;;;;;;;;;5094246;28;20474;-86
2021/09/08 00:22:40;;;;;;;1999.90;999.90;;;;;;;;;;5093786;28;20954;-86
2021/09/08 00:25:08;;;;;;;1999.90;999.90;;;;;;;;;;5093908;28;20539;-85
2021/09/08 00:27:35;;;;;;;1999.90;999.90;;;;;;;;;;5094340;28;20466;-84
2021/09/08 00:30:03;;;;;;;1999.90;999.90;;;;;;;;;;5093687;28;20489;-85
2021/09/08 00:32:30;;;;;;;1999.90;999.90;;;;;;;;;;5077039;28;20488;-85
2021/09/08 00:34:57;;;;;;;1999.90;999.90;;;;;;;;;;5074263;28;20485;-85
2021/09/08 00:37:24;;;;;;;1999.90;999.90;;;;;;;;;;5072831;28;20458;-84
2021/09/08 00:39:52;;;;;;;1999.90;999.90;;;;;;;;;;5093322;28;21018;-86
2021/09/08 00:42:19;;;;;;;1999.90;999.90;;;;;;;;;;5093837;28;20927;-85
2021/09/08 00:44:46;;;;;;;1999.90;999.90;;;;;;;;;;5094480;28;20454;-84
2021/09/08 00:47:14;;;;;;;1999.90;999.90;;;;;;;;;;5087129;28;20450;-87
2021/09/08 00:49:41;;;;;;;1999.90;999.90;;;;;;;;;;5094542;28;20472;-87
2021/09/08 00:52:09;;;;;;;1999.90;999.90;;;;;;;;;;5094222;28;20486;-86
2021/09/08 00:54:37;;;;;;;1999.90;999.90;;;;;;;;;;5095698;28;20453;-86
2021/09/08 00:57:06;;;;;;;1999.90;999.90;;;;;;;;;;5101089;28;20435;-87
2021/09/08 00:59:34;;;;;;;1999.90;999.90;;;;;;;;;;5115915;28;20486;-86
2021/09/08 01:02:04;;;;;;;1999.90;999.90;;;;;;;;;;5093142;28;20523;-87
2021/09/08 01:04:31;;;;;;;1999.90;999.90;;;;;;;;;;5092110;28;20484;-87
2021/09/08 01:06:59;;;;;;;1999.90;999.90;;;;;;;;;;5091968;28;20457;-86
2021/09/08 01:09:26;;;;;;;1999.90;999.90;;;;;;;;;;5092156;28;20474;-87
2021/09/08 01:11:53;;;;;;;1999.90;999.90;;;;;;;;;;5091932;28;20462;-87
2021/09/08 01:14:21;;;;;;;1999.90;999.90;;;;;;;;;;5091993;28;20461;-86
2021/09/08 01:16:50;;;;;;;1999.90;999.90;;;;;;;;;;5091286;28;20454;-86
2021/09/08 01:19:17;;;;;;;1999.90;999.90;;;;;;;;;;5091581;28;20477;-86
2021/09/08 01:21:44;;;;;;;1999.90;999.90;;;;;;;;;;5091709;28;20459;-87
2021/09/08 01:24:13;;;;;;;1999.90;999.90;;;;;;;;;;5092089;28;20457;-87
2021/09/08 01:26:40;;;;;;;1999.90;999.90;;;;;;;;;;5091427;28;20448;-86
2021/09/08 01:29:08;;;;;;;1999.90;999.90;;;;;;;;;;5092005;28;20475;-87
2021/09/08 01:31:35;;;;;;;1999.90;999.90;;;;;;;;;;5091739;28;20455;-86
2021/09/08 01:34:02;;;;;;;1999.90;999.90;;;;;;;;;;5092888;28;20493;-85
2021/09/08 01:36:29;;;;;;;1999.90;999.90;;;;;;;;;;5111371;28;20497;-86
2021/09/08 01:38:57;;;;;;;1999.90;999.90;;;;;;;;;;5098334;28;20462;-85
2021/09/08 01:41:25;;;;;;;1999.90;999.90;;;;;;;;;;5096091;28;20508;-86
2021/09/08 01:43:52;;;;;;;1999.90;999.90;;;;;;;;;;5097419;28;20438;-86
2021/09/08 01:46:20;;;;;;;1999.90;999.90;;;;;;;;;;5096722;28;20980;-86
2021/09/08 01:48:47;;;;;;;1999.90;999.90;;;;;;;;;;5097350;28;20473;-85
2021/09/08 01:51:15;;;;;;;1999.90;999.90;;;;;;;;;;5097366;28;20452;-86
2021/09/08 01:53:42;;;;;;;1999.90;999.90;;;;;;;;;;5097106;28;20492;-85
2021/09/08 01:56:09;;;;;;;1999.90;999.90;;;;;;;;;;5097092;28;20837;-85
2021/09/08 01:58:38;;;;;;;1999.90;999.90;;;;;;;;;;5097042;28;20477;-85
2021/09/08 02:01:05;;;;;;;1999.90;999.90;;;;;;;;;;5097124;28;20456;-85
2021/09/08 02:03:32;;;;;;;1999.90;999.90;;;;;;;;;;5096928;28;20975;-86
2021/09/08 02:05:59;;;;;;;1999.90;999.90;;;;;;;;;;5097381;28;20457;-86
2021/09/08 02:08:26;;;;;;;1999.90;999.90;;;;;;;;;;5096579;28;20449;-85
2021/09/08 02:10:53;;;;;;;1999.90;999.90;;;;;;;;;;5097519;28;20467;-85
2021/09/08 02:13:20;;;;;;;1999.90;999.90;;;;;;;;;;5096882;28;20484;-85
2021/09/08 02:15:49;;;;;;;1999.90;999.90;;;;;;;;;;5096819;28;20448;-86
2021/09/08 02:18:16;;;;;;;1999.90;999.90;;;;;;;;;;5096590;28;20543;-85
2021/09/08 02:20:43;;;;;;;1999.90;999.90;;;;;;;;;;5097135;28;20450;-86
2021/09/08 02:23:11;;;;;;;1999.90;999.90;;;;;;;;;;5097451;28;20445;-85
2021/09/08 02:25:38;;;;;;;1999.90;999.90;;;;;;;;;;5096879;28;20456;-85
2021/09/08 02:28:05;;;;;;;1999.90;999.90;;;;;;;;;;5096428;28;20446;-86
2021/09/08 02:30:33;;;;;;;1999.90;999.90;;;;;;;;;;5096535;28;20997;-86
2021/09/08 02:33:01;;;;;;;1999.90;999.90;;;;;;;;;;5096536;28;21240;-87
2021/09/08 02:35:28;;;;;;;1999.90;999.90;;;;;;;;;;5096100;28;20453;-87
2021/09/08 02:37:55;;;;;;;1999.90;999.90;;;;;;;;;;5096581;28;20450;-87
2021/09/08 02:40:23;;;;;;;1999.90;999.90;;;;;;;;;;5095314;28;20472;-87
2021/09/08 02:42:50;;;;;;;1999.90;999.90;;;;;;;;;;5087543;28;20483;-88
2021/09/08 02:45:17;;;;;;;1999.90;999.90;;;;;;;;;;5077697;28;20465;-87
2021/09/08 02:47:44;;;;;;;1999.90;999.90;;;;;;;;;;5075181;28;20456;-87
2021/09/08 02:50:13;;;;;;;1999.90;999.90;;;;;;;;;;5074960;28;20474;-87
2021/09/08 02:52:41;;;;;;;1999.90;999.90;;;;;;;;;;5094666;28;20481;-87
2021/09/08 02:55:08;;;;;;;1999.90;999.90;;;;;;;;;;5088003;28;20438;-88
2021/09/08 02:57:35;;;;;;;1999.90;999.90;;;;;;;;;;5098888;28;20446;-88
2021/09/08 03:00:02;;;;;;;1999.90;999.90;;;;;;;;;;5080274;28;20498;-87
2021/09/08 03:02:30;;;;;;;1999.90;999.90;;;;;;;;;;5074199;28;20462;-88
2021/09/08 03:05:02;;;;;;;1999.90;999.90;;;;;;;;;;5076089;28;20447;-88
2021/09/08 03:07:31;;;;;;;1999.90;999.90;;;;;;;;;;5074114;28;20488;-87
2021/09/08 03:09:58;;;;;;;1999.90;999.90;;;;;;;;;;5074515;28;20483;-86
2021/09/08 03:12:25;;;;;;;1999.90;999.90;;;;;;;;;;5073958;28;20533;-87
2021/09/08 03:14:52;;;;;;;1999.90;999.90;;;;;;;;;;5074345;28;20449;-85
2021/09/08 03:17:19;;;;;;;1999.90;999.90;;;;;;;;;;5074929;28;20976;-86
2021/09/08 03:19:46;;;;;;;1999.90;999.90;;;;;;;;;;5074217;28;20466;-87
2021/09/08 03:22:14;;;;;;;1999.90;999.90;;;;;;;;;;5073673;28;20472;-87
2021/09/08 03:24:42;;;;;;;1999.90;999.90;;;;;;;;;;5077942;28;20456;-88
2021/09/08 03:27:10;;;;;;;1999.90;999.90;;;;;;;;;;5093568;28;20445;-86
2021/09/08 03:29:37;;;;;;;1999.90;999.90;;;;;;;;;;5093384;28;20997;-87
2021/09/08 03:32:04;;;;;;;1999.90;999.90;;;;;;;;;;5081038;28;20438;-85
2021/09/08 03:34:31;;;;;;;1999.90;999.90;;;;;;;;;;5073094;28;20496;-87
2021/09/08 03:36:58;;;;;;;1999.90;999.90;;;;;;;;;;5073026;28;20475;-86
2021/09/08 03:39:26;;;;;;;1999.90;999.90;;;;;;;;;;5073917;28;20479;-87
2021/09/08 03:41:54;;;;;;;1999.90;999.90;;;;;;;;;;5080543;28;20461;-87
2021/09/08 03:44:21;;;;;;;1999.90;999.90;;;;;;;;;;5093443;28;20448;-87
2021/09/08 03:46:48;;;;;;;1999.90;999.90;;;;;;;;;;5098558;28;20445;-87
2021/09/08 03:49:16;;;;;;;1999.90;999.90;;;;;;;;;;5093292;28;20481;-88
2021/09/08 03:51:43;;;;;;;1999.90;999.90;;;;;;;;;;5093064;28;20458;-87
2021/09/08 03:54:10;;;;;;;1999.90;999.90;;;;;;;;;;5093542;28;20489;-86
2021/09/08 03:56:37;;;;;;;1999.90;999.90;;;;;;;;;;5092763;28;20448;-87
2021/09/08 03:59:06;;;;;;;1999.90;999.90;;;;;;;;;;5093364;28;21024;-88
2021/09/08 04:01:34;;;;;;;1999.90;999.90;;;;;;;;;;5093130;28;20458;-89
2021/09/08 04:04:02;;;;;;;1999.90;999.90;;;;;;;;;;5092541;28;20820;-90
2021/09/08 04:06:29;;;;;;;1999.90;999.90;;;;;;;;;;5092760;28;20530;-88
2021/09/08 04:08:56;;;;;;;1999.90;999.90;;;;;;;;;;5093084;28;20474;-89
2021/09/08 04:11:23;;;;;;;1999.90;999.90;;;;;;;;;;5092911;28;20971;-88
2021/09/08 04:13:50;;;;;;;1999.90;999.90;;;;;;;;;;5092987;28;20479;-89
2021/09/08 04:16:18;;;;;;;1999.90;999.90;;;;;;;;;;5091453;28;20458;-89
2021/09/08 04:18:46;;;;;;;1999.90;999.90;;;;;;;;;;5092767;28;21018;-89
2021/09/08 04:21:13;;;;;;;1999.90;999.90;;;;;;;;;;5092515;28;20457;-88
2021/09/08 04:23:40;;;;;;;1999.90;999.90;;;;;;;;;;5092728;28;20456;-88
2021/09/08 04:26:07;;;;;;;1999.90;999.90;;;;;;;;;;5093635;28;20456;-90
2021/09/08 04:28:43;;;;;;;1999.90;999.90;;;;;;;;;;5093753;28;20484;-87
2021/09/08 04:31:11;;;;;;;1999.90;999.90;;;;;;;;;;5094981;28;20447;-89
2021/09/08 04:33:40;;;;;;;1999.90;999.90;;;;;;;;;;5093851;28;21002;-89
2021/09/08 04:36:07;;;;;;;1999.90;999.90;;;;;;;;;;5094132;28;20517;-90
2021/09/08 04:38:35;;;;;;;1999.90;999.90;;;;;;;;;;5092810;28;20456;-87
2021/09/08 04:41:03;;;;;;;1999.90;999.90;;;;;;;;;;5092385;28;20520;-86
2021/09/08 04:43:30;;;;;;;1999.90;999.90;;;;;;;;;;5092246;28;20452;-87
2021/09/08 04:45:57;;;;;;;1999.90;999.90;;;;;;;;;;5092548;28;20454;-86
2021/09/08 04:48:24;;;;;;;1999.90;999.90;;;;;;;;;;5091352;28;20458;-86
2021/09/08 04:50:53;;;;;;;1999.90;999.90;;;;;;;;;;5090996;28;20449;-86
2021/09/08 04:53:20;;;;;;;1999.90;999.90;;;;;;;;;;5108594;28;20529;-86
2021/09/08 04:55:47;;;;;;;1999.90;999.90;;;;;;;;;;5118470;28;20501;-88
2021/09/08 04:58:14;;;;;;;1999.90;999.90;;;;;;;;;;5099399;28;20536;-85
2021/09/08 05:00:41;;;;;;;1999.90;999.90;;;;;;;;;;5092056;28;20455;-86
2021/09/08 05:03:09;;;;;;;1999.90;999.90;;;;;;;;;;5092295;28;20453;-86
2021/09/08 05:05:36;;;;;;;1999.90;999.90;;;;;;;;;;5091895;28;20488;-86
2021/09/08 05:08:05;;;;;;;1999.90;999.90;;;;;;;;;;5091506;28;20473;-86
2021/09/08 05:10:32;;;;;;;1999.90;999.90;;;;;;;;;;5091859;28;20477;-87
2021/09/08 05:12:59;;;;;;;1999.90;999.90;;;;;;;;;;5086249;28;20439;-86
2021/09/08 05:15:26;;;;;;;1999.90;999.90;;;;;;;;;;5074279;28;20932;-87
2021/09/08 05:17:53;;;;;;;1999.90;999.90;;;;;;;;;;5075077;28;20481;-87
2021/09/08 05:20:20;;;;;;;1999.90;999.90;;;;;;;;;;5075823;28;20470;-86
2021/09/08 05:22:47;;;;;;;1999.90;999.90;;;;;;;;;;5077232;28;20477;-87
2021/09/08 05:25:16;;;;;;;1999.90;999.90;;;;;;;;;;5096097;28;20453;-87
2021/09/08 05:27:43;;;;;;;1999.90;999.90;;;;;;;;;;5095438;28;20457;-86
2021/09/08 05:30:10;;;;;;;1999.90;999.90;;;;;;;;;;5095848;28;20481;-85
2021/09/08 05:32:38;;;;;;;1999.90;999.90;;;;;;;;;;5096220;28;20453;-87
2021/09/08 05:35:05;;;;;;;1999.90;999.90;;;;;;;;;;5095652;28;20476;-87
2021/09/08 05:37:32;;;;;;;1999.90;999.90;;;;;;;;;;5094986;28;20969;-87
2021/09/08 05:40:00;;;;;;;1999.90;999.90;;;;;;;;;;5095865;28;20472;-86
2021/09/08 05:42:28;;;;;;;1999.90;999.90;;;;;;;;;;5095466;28;20961;-88
2021/09/08 05:44:55;;;;;;;1999.90;999.90;;;;;;;;;;5095665;28;20446;-87
2021/09/08 05:47:22;;;;;;;1999.90;999.90;;;;;;;;;;5094652;28;20837;-88
2021/09/08 05:49:49;;;;;;;1999.90;999.90;;;;;;;;;;5095658;28;20462;-86
2021/09/08 05:52:16;;;;;;;1999.90;999.90;;;;;;;;;;5095214;28;20453;-86
2021/09/08 05:54:44;;;;;;;1999.90;999.90;;;;;;;;;;5096170;28;20484;-86
2021/09/08 05:57:11;;;;;;;1999.90;999.90;;;;;;;;;;5095343;28;20444;-86
2021/09/08 05:59:40;;;;;;;1999.90;999.90;;;;;;;;;;5095886;28;20480;-86
2021/09/08 06:02:07;;;;;;;1999.90;999.90;;;;;;;;;;5095901;28;20445;-86
2021/09/08 06:04:34;;;;;;;1999.90;999.90;;;;;;;;;;5095250;28;20459;-85
2021/09/08 06:07:01;;;;;;;1999.90;999.90;;;;;;;;;;5099562;28;20453;-85
2021/09/08 06:09:28;;;;;;;1999.90;999.90;;;;;;;;;;5096856;28;20474;-85
2021/09/08 06:11:57;;;;;;;1999.90;999.90;;;;;;;;;;5097095;28;20952;-85
2021/09/08 06:14:24;;;;;;;1999.90;999.90;;;;;;;;;;5096906;28;20481;-86
2021/09/08 06:16:53;;;;;;;1999.90;999.90;;;;;;;;;;5095945;28;21037;-85
2021/09/08 06:19:20;;;;;;;1999.90;999.90;;;;;;;;;;5096277;28;20472;-85
2021/09/08 06:21:47;;;;;;;1999.90;999.90;;;;;;;;;;5096541;28;20460;-86
2021/09/08 06:24:14;;;;;;;1999.90;999.90;;;;;;;;;;5098909;28;20554;-85
2021/09/08 06:26:42;;;;;;;1999.90;999.90;;;;;;;;;;5098256;28;21044;-85
2021/09/08 06:29:09;;;;;;;1999.90;999.90;;;;;;;;;;5098880;28;20501;-87
2021/09/08 06:31:36;;;;;;;1999.90;999.90;;;;;;;;;;5098303;28;20454;-85
2021/09/08 06:34:04;;;;;;;1999.90;999.90;;;;;;;;;;5101228;28;20491;-85
2021/09/08 06:36:32;;;;;;;1999.90;999.90;;;;;;;;;;5099627;28;20526;-85
2021/09/08 06:38:59;;;;;;;1999.90;999.90;;;;;;;;;;5099498;28;20474;-86
2021/09/08 06:41:26;;;;;;;1999.90;999.90;;;;;;;;;;5090813;28;20449;-84
2021/09/08 06:43:53;;;;;;;1999.90;999.90;;;;;;;;;;5090346;28;21013;-86
2021/09/08 06:46:20;;;;;;;1999.90;999.90;;;;;;;;;;5099778;28;20454;-85
2021/09/08 06:48:48;;;;;;;1999.90;999.90;;;;;;;;;;5101318;28;21013;-86
2021/09/08 06:51:16;;;;;;;1999.90;999.90;;;;;;;;;;5109533;28;20454;-85
2021/09/08 06:53:43;;;;;;;1999.90;999.90;;;;;;;;;;5111211;28;20473;-88
2021/09/08 06:56:11;;;;;;;1999.90;999.90;;;;;;;;;;5099124;28;20485;-86
2021/09/08 06:58:38;;;;;;;1999.90;999.90;;;;;;;;;;5096304;28;20469;-85
2021/09/08 07:01:05;;;;;;;1999.90;999.90;;;;;;;;;;5096132;28;20533;-85
2021/09/08 07:03:32;;;;;;;1999.90;999.90;;;;;;;;;;5095629;28;20452;-85
2021/09/08 07:05:59;;;;;;;1999.90;999.90;;;;;;;;;;5095684;28;20813;-85
2021/09/08 07:08:28;;;;;;;1999.90;999.90;;;;;;;;;;5094650;28;20594;-86
2021/09/08 07:10:55;;;;;;;1999.90;999.90;;;;;;;;;;5094066;28;20452;-85
2021/09/08 07:13:22;;;;;;;1999.90;999.90;;;;;;;;;;5093920;28;20482;-87
2021/09/08 07:15:49;;;;;;;1999.90;999.90;;;;;;;;;;5093170;28;20508;-87
2021/09/08 07:18:17;;;;;;;1999.90;999.90;;;;;;;;;;5093108;28;20775;-86
2021/09/08 07:20:44;;;;;;;1999.90;999.90;;;;;;;;;;5093494;28;20538;-87
2021/09/08 07:23:11;;;;;;;1999.90;999.90;;;;;;;;;;5093468;28;20459;-87
2021/09/08 07:25:40;;;;;;;1999.90;999.90;;;;;;;;;;5093334;28;20448;-87
2021/09/08 07:28:07;;;;;;;1999.90;999.90;;;;;;;;;;5091949;28;20451;-87
2021/09/08 07:30:34;;;;;;;1999.90;999.90;;;;;;;;;;5092706;28;20950;-87
2021/09/08 07:33:01;;;;;;;1999.90;999.90;;;;;;;;;;5073110;28;20460;-86
2021/09/08 07:35:29;;;;;;;1999.90;999.90;;;;;;;;;;5085553;28;20488;-86
2021/09/08 07:37:57;;;;;;;1999.90;999.90;;;;;;;;;;5092619;28;20456;-87
2021/09/08 07:40:25;;;;;;;1999.90;999.90;;;;;;;;;;5092906;28;20459;-85
2021/09/08 07:42:54;;;;;;;1999.90;999.90;;;;;;;;;;5093612;28;20799;-87
2021/09/08 07:45:21;;;;;;;1999.90;999.90;;;;;;;;;;5093197;28;20449;-87
2021/09/08 07:47:48;;;;;;;1999.90;999.90;;;;;;;;;;5093118;28;20443;-87
2021/09/08 07:50:16;;;;;;;1999.90;999.90;;;;;;;;;;5092797;28;20476;-88
2021/09/08 07:52:43;;;;;;;1999.90;999.90;;;;;;;;;;5092892;28;20549;-87
2021/09/08 07:55:11;;;;;;;1999.90;999.90;;;;;;;;;;5092659;28;20572;-86
2021/09/08 07:57:38;;;;;;;1999.90;999.90;;;;;;;;;;5092111;28;20904;-88
2021/09/08 08:00:08;;;;;;;1999.90;999.90;;;;;;;;;;5090767;28;20479;-87
2021/09/08 08:02:43;;;;;;;1999.90;999.90;;;;;;;;;;5081902;28;20458;-86
2021/09/08 08:05:10;;;;;;;1999.90;999.90;;;;;;;;;;5098703;28;20433;-87
2021/09/08 08:07:37;;;;;;;1999.90;999.90;;;;;;;;;;5096428;28;20455;-86
2021/09/08 08:10:05;;;;;;;1999.90;999.90;;;;;;;;;;5083511;28;20470;-86
2021/09/08 08:12:32;;;;;;;1999.90;999.90;;;;;;;;;;5088310;28;20947;-86
2021/09/08 08:15:00;;;;;;;1999.90;999.90;;;;;;;;;;5084241;28;20475;-86
2021/09/08 08:17:29;;;;;;;1999.90;999.90;;;;;;;;;;5084533;28;20472;-86
2021/09/08 08:19:56;;;;;;;1999.90;999.90;;;;;;;;;;5086283;28;21062;-86
2021/09/08 08:22:23;;;;;;;1999.90;999.90;;;;;;;;;;5097387;28;20472;-85
2021/09/08 08:24:50;;;;;;;1999.90;999.90;;;;;;;;;;5092452;28;20838;-86
2021/09/08 08:27:17;;;;;;;1999.90;999.90;;;;;;;;;;5096629;28;20888;-86
2021/09/08 08:29:45;;;;;;;1999.90;999.90;;;;;;;;;;5096974;28;20478;-86
2021/09/08 08:32:12;;;;;;;1999.90;999.90;;;;;;;;;;5082663;28;20455;-86
2021/09/08 08:34:41;;;;;;;1999.90;999.90;;;;;;;;;;5076512;28;20874;-85
2021/09/08 08:37:08;;;;;;;1999.90;999.90;;;;;;;;;;5074967;28;20450;-86
2021/09/08 08:39:38;;;;;;;1999.90;999.90;;;;;;;;;;5074929;28;20471;-86
2021/09/08 08:42:05;;;;;;;1999.90;999.90;;;;;;;;;;5081741;28;20454;-86
2021/09/08 08:44:32;;;;;;;1999.90;999.90;;;;;;;;;;5092190;28;20446;-86
2021/09/08 08:47:00;;;;;;;1999.90;999.90;;;;;;;;;;5087113;28;20462;-85
2021/09/08 08:49:28;;;;;;;1999.90;999.90;;;;;;;;;;5093550;28;20458;-91
2021/09/08 08:51:57;;;;;;;1999.90;999.90;;;;;;;;;;5116525;28;20501;-87
2021/09/08 08:54:24;;;;;;;1999.90;999.90;;;;;;;;;;5083633;28;20899;-88
2021/09/08 08:56:52;;;;;;;1999.90;999.90;;;;;;;;;;5090727;28;20448;-87
2021/09/08 08:59:19;;;;;;;1999.90;999.90;;;;;;;;;;5091831;28;20553;-86
2021/09/08 09:01:46;;;;;;;1999.90;999.90;;;;;;;;;;5087015;28;20490;-87
2021/09/08 09:04:14;;;;;;;1999.90;999.90;;;;;;;;;;5087499;28;20523;-86
2021/09/08 09:06:42;;;;;;;1999.90;999.90;;;;;;;;;;5091076;28;20450;-88
2021/09/08 09:09:11;;;;;;;1999.90;999.90;;;;;;;;;;5091183;28;20527;-86
2021/09/08 09:11:40;;;;;;;1999.90;999.90;;;;;;;;;;5091827;28;20467;-87
2021/09/08 09:14:08;;;;;;;1999.90;999.90;;;;;;;;;;5091081;28;20464;-87
2021/09/08 09:16:36;;;;;;;1999.90;999.90;;;;;;;;;;5090990;28;20489;-87
2021/09/08 09:19:03;;;;;;;1999.90;999.90;;;;;;;;;;5090596;28;20462;-87
2021/09/08 09:21:30;;;;;;;1999.90;999.90;;;;;;;;;;5091343;28;20445;-86
2021/09/08 09:23:58;;;;;;;1999.90;999.90;;;;;;;;;;5090690;28;20461;-87
2021/09/08 09:26:28;;;;;;;1999.90;999.90;;;;;;;;;;5090076;28;20976;-86
2021/09/08 09:28:55;;;;;;;1999.90;999.90;;;;;;;;;;5098610;28;21114;-88
2021/09/08 09:31:23;;;;;;;1999.90;999.90;;;;;;;;;;5084945;28;20454;-86
2021/09/08 09:33:55;;;;;;;1999.90;999.90;;;;;;;;;;5086938;28;20544;-87
2021/09/08 09:36:23;;;;;;;1999.90;999.90;;;;;;;;;;5085431;28;20489;-87
2021/09/08 09:38:51;;;;;;;1999.90;999.90;;;;;;;;;;5084221;28;20477;-86
2021/09/08 09:41:22;;;;;;;1999.90;999.90;;;;;;;;;;5091523;28;20897;-86
2021/09/08 09:43:51;;;;;;;1999.90;999.90;;;;;;;;;;5091345;28;20452;-88
2021/09/08 09:46:18;;;;;;;1999.90;999.90;;;;;;;;;;5090483;28;20442;-87
2021/09/08 09:48:46;;;;;;;1999.90;999.90;;;;;;;;;;5091078;28;20484;-84
2021/09/08 09:51:14;;;;;;;1999.90;999.90;;;;;;;;;;5090899;28;20835;-87
2021/09/08 09:53:41;;;;;;;1999.90;999.90;;;;;;;;;;5090455;28;20562;-86
2021/09/08 09:56:09;;;;;;;1999.90;999.90;;;;;;;;;;5090531;28;20473;-86
2021/09/08 09:58:37;;;;;;;1999.90;999.90;;;;;;;;;;5090743;28;21021;-86
2021/09/08 10:01:06;;;;;;;1999.90;999.90;;;;;;;;;;5090643;28;20834;-87
2021/09/08 10:03:34;;;;;;;1999.90;999.90;;;;;;;;;;5088759;28;20453;-86
2021/09/08 10:06:01;;;;;;;1999.90;999.90;;;;;;;;;;5085507;28;20476;-87
2021/09/08 10:08:29;;;;;;;1999.90;999.90;;;;;;;;;;5090508;28;20458;-87
2021/09/08 10:10:58;;;;;;;1999.90;999.90;;;;;;;;;;5089153;28;20453;-86
2021/09/08 10:13:28;;;;;;;1999.90;999.90;;;;;;;;;;5092773;28;20508;-88
2021/09/08 10:15:55;;;;;;;1999.90;999.90;;;;;;;;;;5088796;28;20489;-86
2021/09/08 10:18:25;;;;;;;1999.90;999.90;;;;;;;;;;5088628;28;20486;-87
2021/09/08 10:21:00;;;;;;;1999.90;999.90;;;;;;;;;;5088232;28;20450;-86
2021/09/08 10:23:28;;;;;;;1999.90;999.90;;;;;;;;;;5094601;28;20457;-85
2021/09/08 10:25:57;;;;;;;1999.90;999.90;;;;;;;;;;5094573;28;20468;-85
2021/09/08 10:28:25;;;;;;;1999.90;999.90;;;;;;;;;;5092915;28;20954;-85
2021/09/08 10:30:53;;;;;;;1999.90;999.90;;;;;;;;;;5078765;22;20495;-84
2021/09/08 10:33:20;;;;;;;1999.90;999.90;;;;;;;;;;5050188;28;20444;-86
2021/09/08 10:35:49;;;;;;;1999.90;999.90;;;;;;;;;;5057365;28;20746;-82
2021/09/08 10:38:17;;;;;;;1999.90;999.90;;;;;;;;;;5055348;28;20451;-84
2021/09/08 10:40:45;;;;;;;1999.90;999.90;;;;;;;;;;5055358;28;20468;-84
2021/09/08 10:43:12;;;;;;;1999.90;999.90;;;;;;;;;;5056283;28;20448;-84
2021/09/08 10:45:49;;;;;;;1999.90;999.90;;;;;;;;;;5047567;28;20510;-84
2021/09/08 10:48:31;;;;;;;1999.90;999.90;;;;;;;;;;5044616;28;20444;-85
2021/09/08 10:51:00;;;;;;;1999.90;999.90;;;;;;;;;;5055039;28;20506;-85
2021/09/08 10:53:37;;;;;;;1999.90;999.90;;;;;;;;;;5054636;28;20452;-84
2021/09/08 10:56:05;;;;;;;1999.90;999.90;;;;;;;;;;5054327;28;21127;-84
2021/09/08 10:58:50;;;;;;;1999.90;999.90;;;;;;;;;;5049902;28;20448;-85
2021/09/08 11:01:17;;;;;;;1999.90;999.90;;;;;;;;;;5053881;28;20495;-83
2021/09/08 11:03:45;;;;;;;1999.90;999.90;;;;;;;;;;5060162;28;20951;-83
2021/09/08 11:06:13;;;;;;;1999.90;999.90;;;;;;;;;;5055508;28;20514;-83
2021/09/08 11:08:40;;;;;;;1999.90;999.90;;;;;;;;;;5051261;28;20440;-84
2021/09/08 11:11:12;;;;;;;1999.90;999.90;;;;;;;;;;5056504;28;20478;-84
2021/09/08 11:13:39;;;;;;;1999.90;999.90;;;;;;;;;;5054644;28;20488;-84
2021/09/08 11:16:16;;;;;;;1999.90;999.90;;;;;;;;;;5059956;28;21015;-84
2021/09/08 11:18:43;;;;;;;1999.90;999.90;;;;;;;;;;5052397;28;20443;-85
2021/09/08 11:21:10;;;;;;;1999.90;999.90;;;;;;;;;;5054171;28;20478;-83
2021/09/08 11:23:39;;;;;;;1999.90;999.90;;;;;;;;;;5055853;28;20455;-84
2021/09/08 11:26:07;;;;;;;1999.90;999.90;;;;;;;;;;5039872;28;20463;-85
2021/09/08 11:28:35;;;;;;;1999.90;999.90;;;;;;;;;;5045957;28;20477;-85
2021/09/08 11:31:11;;;;;;;1999.90;999.90;;;;;;;;;;5052394;28;20479;-84
2021/09/08 11:33:38;;;;;;;1999.90;999.90;;;;;;;;;;5051530;28;20853;-85
2021/09/08 11:36:11;;;;;;;1999.90;999.90;;;;;;;;;;5053145;28;20488;-85
2021/09/08 11:38:44;;;;;;;1999.90;999.90;;;;;;;;;;5051626;28;20448;-85
2021/09/08 11:41:12;;;;;;;1999.90;999.90;;;;;;;;;;5053478;28;20838;-84
2021/09/08 11:43:42;;;;;;;1999.90;999.90;;;;;;;;;;5051641;28;20858;-86
2021/09/08 11:46:10;;;;;;;1999.90;999.90;;;;;;;;;;5048808;28;20842;-84
2021/09/08 11:48:37;;;;;;;1999.90;999.90;;;;;;;;;;5045940;28;20453;-84
2021/09/08 11:51:05;;;;;;;1999.90;999.90;;;;;;;;;;5047299;28;20471;-86
2021/09/08 11:53:32;;;;;;;1999.90;999.90;;;;;;;;;;5049288;28;20485;-85
2021/09/08 11:56:07;;;;;;;1999.90;999.90;;;;;;;;;;5052965;28;20881;-84
2021/09/08 11:58:34;;;;;;;1999.90;999.90;;;;;;;;;;5047794;28;20454;-85
2021/09/08 12:01:04;;;;;;;1999.90;999.90;;;;;;;;;;5047329;28;20476;-85
2021/09/08 12:03:31;;;;;;;1999.90;999.90;;;;;;;;;;5044946;28;20452;-85
2021/09/08 12:06:10;;;;;;;1999.90;999.90;;;;;;;;;;5049721;28;20475;-84
2021/09/08 12:08:37;;;;;;;1999.90;999.90;;;;;;;;;;5050211;28;20516;-85
2021/09/08 12:11:04;;;;;;;1999.90;999.90;;;;;;;;;;5046688;28;20525;-86
2021/09/08 12:13:34;;;;;;;1999.90;999.90;;;;;;;;;;5046917;28;20556;-85
2021/09/08 12:16:01;;;;;;;1999.90;999.90;;;;;;;;;;5049815;28;20514;-84
2021/09/08 12:18:28;;;;;;;1999.90;999.90;;;;;;;;;;5049253;28;20460;-85
2021/09/08 12:21:10;;;;;;;1999.90;999.90;;;;;;;;;;5053528;28;20472;-84
2021/09/08 12:23:38;;;;;;;1999.90;999.90;;;;;;;;;;5050414;28;20474;-85
2021/09/08 12:26:09;;;;;;;1999.90;999.90;;;;;;;;;;5052538;28;20942;-85
2021/09/08 12:28:38;;;;;;;1999.90;999.90;;;;;;;;;;5048083;28;20447;-86
2021/09/08 12:31:31;;;;;;;1999.90;999.90;;;;;;;;;;5046730;28;20484;-86
2021/09/08 12:33:59;;;;;;;1999.90;999.90;;;;;;;;;;5056456;28;20527;-87
2021/09/08 12:36:27;;;;;;;1999.90;999.90;;;;;;;;;;5058244;28;20483;-87
2021/09/08 12:38:54;;;;;;;1999.90;999.90;;;;;;;;;;5050297;28;20458;-86
2021/09/08 12:41:22;;;;;;;1999.90;999.90;;;;;;;;;;5056409;28;20955;-85
2021/09/08 12:44:02;;;;;;;1999.90;999.90;;;;;;;;;;5054185;28;20448;-86
2021/09/08 12:46:38;;;;;;;1999.90;999.90;;;;;;;;;;5052363;28;20451;-87
2021/09/08 12:49:06;;;;;;;1999.90;999.90;;;;;;;;;;5052650;28;20451;-86
2021/09/08 12:51:33;;;;;;;1999.90;999.90;;;;;;;;;;5052859;28;20458;-85
2021/09/08 12:54:01;;;;;;;1999.90;999.90;;;;;;;;;;5054064;28;20456;-86
2021/09/08 12:56:31;;;;;;;1999.90;999.90;;;;;;;;;;5050842;28;20511;-82
2021/09/08 12:59:14;;;;;;;1999.90;999.90;;;;;;;;;;5050539;28;20458;-85
2021/09/08 13:01:46;;;;;;;1999.90;999.90;;;;;;;;;;5050267;28;20952;-86
2021/09/08 13:04:14;;;;;;;1999.90;999.90;;;;;;;;;;5054712;28;20475;-85
2021/09/08 13:06:43;;;;;;;1999.90;999.90;;;;;;;;;;5045476;28;20468;-86
2021/09/08 13:09:15;;;;;;;1999.90;999.90;;;;;;;;;;5053672;28;20481;-83
2021/09/08 13:11:42;;;;;;;1999.90;999.90;;;;;;;;;;5047474;28;20450;-86
2021/09/08 13:14:09;;;;;;;1999.90;999.90;;;;;;;;;;5049940;28;20447;-84
2021/09/08 13:16:37;;;;;;;1999.90;999.90;;;;;;;;;;5045251;28;20476;-85
2021/09/08 13:19:06;;;;;;;1999.90;999.90;;;;;;;;;;5052693;28;20535;-85
2021/09/08 13:21:39;;;;;;;1999.90;999.90;;;;;;;;;;5053408;28;20492;-85
2021/09/08 13:24:07;;;;;;;1999.90;999.90;;;;;;;;;;5033474;28;20461;-84
2021/09/08 13:26:35;;;;;;;1999.90;999.90;;;;;;;;;;5049129;28;20790;-84
2021/09/08 13:29:02;;;;;;;1999.90;999.90;;;;;;;;;;5051703;28;20460;-83
2021/09/08 13:31:30;;;;;;;1999.90;999.90;;;;;;;;;;5045090;28;20960;-84
2021/09/08 13:33:57;;;;;;;1999.90;999.90;;;;;;;;;;5050267;28;20467;-84
2021/09/08 13:36:26;;;;;;;1999.90;999.90;;;;;;;;;;5050467;28;20487;-84
2021/09/08 13:38:53;;;;;;;1999.90;999.90;;;;;;;;;;5051840;28;20460;-84
2021/09/08 13:41:20;;;;;;;1999.90;999.90;;;;;;;;;;5053703;28;20960;-84
2021/09/08 13:43:48;;;;;;;1999.90;999.90;;;;;;;;;;5057140;28;20460;-83
2021/09/08 13:46:17;;;;;;;1999.90;999.90;;;;;;;;;;5045132;28;20447;-84